Time;durP1;ratioP1;P1;durP2;ratioP2;P2;SDS_P1;SDS_P2;PMS_P1;PMS_P2;Temp;Humidity;BMP_temperature;BMP_pressure;BME280_temperature;BME280_humidity;BME280_pressure;Samples;Min_cycle;Max_cycle;Signal;HPM_P1;HPM_P2
2022/03/06 00:00:06;;;;;;;0.67;0.67;;;;;;;;;;4935472;28;20572;-70
2022/03/06 00:02:35;;;;;;;1.60;1.50;;;;;;;;;;4937093;28;20206;-71
2022/03/06 00:05:02;;;;;;;2.53;0.97;;;;;;;;;;4937656;28;20311;-71
2022/03/06 00:07:30;;;;;;;2.87;2.30;;;;;;;;;;4936935;28;20238;-70
2022/03/06 00:09:57;;;;;;;1.80;1.70;;;;;;;;;;4933686;28;20214;-71
2022/03/06 00:12:26;;;;;;;0.80;0.80;;;;;;;;;;4935807;28;20657;-70
2022/03/06 00:14:53;;;;;;;6.23;1.00;;;;;;;;;;4934363;28;20570;-70
2022/03/06 00:17:21;;;;;;;2.50;2.07;;;;;;;;;;4932413;28;21233;-70
2022/03/06 00:19:48;;;;;;;0.30;0.30;;;;;;;;;;4935093;28;20199;-70
2022/03/06 00:22:16;;;;;;;1.90;1.80;;;;;;;;;;4937276;28;20239;-69
2022/03/06 00:24:43;;;;;;;3.60;1.20;;;;;;;;;;4943486;28;20203;-69
2022/03/06 00:27:11;;;;;;;0.10;0.10;;;;;;;;;;4940008;28;20215;-70
2022/03/06 00:29:40;;;;;;;0.97;0.97;;;;;;;;;;4937396;28;20192;-70
2022/03/06 00:32:07;;;;;;;1.10;1.10;;;;;;;;;;4939136;28;20210;-71
2022/03/06 00:34:35;;;;;;;1.10;1.10;;;;;;;;;;4940889;28;20219;-70
2022/03/06 00:37:04;;;;;;;2.70;2.17;;;;;;;;;;4942726;28;20580;-72
2022/03/06 00:39:32;;;;;;;0.13;0.13;;;;;;;;;;4945775;28;20210;-71
2022/03/06 00:41:59;;;;;;;5.00;4.67;;;;;;;;;;4940959;28;20246;-71
2022/03/06 00:44:27;;;;;;;3.20;2.80;;;;;;;;;;4940310;28;20200;-71
2022/03/06 00:46:56;;;;;;;0.00;0.00;;;;;;;;;;4938980;28;21625;-70
2022/03/06 00:49:24;;;;;;;2.00;1.90;;;;;;;;;;4937389;28;20290;-71
2022/03/06 00:51:51;;;;;;;0.43;0.43;;;;;;;;;;4942589;28;20296;-70
2022/03/06 00:54:19;;;;;;;2.17;0.80;;;;;;;;;;4940858;28;20238;-71
2022/03/06 00:56:47;;;;;;;0.50;0.47;;;;;;;;;;4939882;28;20242;-70
2022/03/06 00:59:15;;;;;;;1.20;1.20;;;;;;;;;;4945149;28;20213;-70
2022/03/06 01:01:43;;;;;;;1.90;1.00;;;;;;;;;;4940357;28;20615;-72
2022/03/06 01:04:12;;;;;;;2.23;0.97;;;;;;;;;;4945757;28;20203;-71
2022/03/06 01:06:39;;;;;;;0.30;0.30;;;;;;;;;;4943841;28;20277;-71
2022/03/06 01:09:07;;;;;;;4.03;1.57;;;;;;;;;;4941155;28;20206;-71
2022/03/06 01:11:35;;;;;;;1.43;1.23;;;;;;;;;;4938096;28;20624;-70
2022/03/06 01:14:03;;;;;;;1.03;1.03;;;;;;;;;;4943382;28;20659;-71
2022/03/06 01:16:30;;;;;;;3.20;1.70;;;;;;;;;;4942393;28;20203;-70
2022/03/06 01:18:59;;;;;;;5.93;2.53;;;;;;;;;;4942979;28;20211;-70
2022/03/06 01:21:28;;;;;;;0.07;0.07;;;;;;;;;;4937701;28;20235;-70
2022/03/06 01:23:55;;;;;;;0.73;0.67;;;;;;;;;;4942223;28;20593;-69
2022/03/06 01:26:22;;;;;;;2.30;1.87;;;;;;;;;;4939873;28;20215;-70
2022/03/06 01:28:50;;;;;;;0.50;0.50;;;;;;;;;;4939367;28;20206;-69
2022/03/06 01:31:17;;;;;;;0.60;0.60;;;;;;;;;;4940033;28;20211;-69
2022/03/06 01:33:45;;;;;;;0.10;0.10;;;;;;;;;;4939641;28;20207;-72
2022/03/06 01:36:12;;;;;;;2.87;2.67;;;;;;;;;;4941168;28;20242;-70
2022/03/06 01:38:41;;;;;;;5.13;3.50;;;;;;;;;;4938977;28;20199;-72
2022/03/06 01:41:08;;;;;;;0.47;0.47;;;;;;;;;;4950237;28;21435;-70
2022/03/06 01:43:36;;;;;;;3.40;1.50;;;;;;;;;;4956333;28;20230;-70
2022/03/06 01:46:04;;;;;;;0.57;0.57;;;;;;;;;;4953850;28;20853;-71
2022/03/06 01:48:31;;;;;;;1.70;1.60;;;;;;;;;;4959482;28;20230;-70
2022/03/06 01:50:59;;;;;;;0.27;0.27;;;;;;;;;;4953200;28;20206;-69
2022/03/06 01:53:26;;;;;;;2.83;1.67;;;;;;;;;;4952844;28;20220;-70
2022/03/06 01:55:55;;;;;;;2.23;1.90;;;;;;;;;;4954123;28;20208;-70
2022/03/06 01:58:22;;;;;;;2.57;1.30;;;;;;;;;;4957825;28;20306;-69
2022/03/06 02:00:50;;;;;;;1.33;1.33;;;;;;;;;;4948964;28;20224;-68
2022/03/06 02:03:18;;;;;;;3.53;2.20;;;;;;;;;;4950168;28;20536;-69
2022/03/06 02:05:48;;;;;;;3.10;2.37;;;;;;;;;;4950188;28;20778;-71
2022/03/06 02:08:15;;;;;;;3.70;1.40;;;;;;;;;;4949890;28;20203;-70
2022/03/06 02:10:43;;;;;;;6.03;4.60;;;;;;;;;;4948507;28;20211;-70
2022/03/06 02:13:12;;;;;;;3.80;2.20;;;;;;;;;;4956621;28;20825;-70
2022/03/06 02:15:39;;;;;;;2.23;1.67;;;;;;;;;;4953521;28;20210;-71
2022/03/06 02:18:07;;;;;;;2.90;2.63;;;;;;;;;;4953165;28;20208;-70
2022/03/06 02:20:36;;;;;;;3.57;1.63;;;;;;;;;;4951462;28;20276;-71
2022/03/06 02:23:05;;;;;;;1.70;1.17;;;;;;;;;;4953202;28;20195;-70
2022/03/06 02:25:33;;;;;;;1.40;1.20;;;;;;;;;;4950857;28;20211;-70
2022/03/06 02:28:02;;;;;;;1.80;1.30;;;;;;;;;;4953354;28;20578;-69
2022/03/06 02:30:31;;;;;;;0.10;0.10;;;;;;;;;;4948545;28;20214;-71
2022/03/06 02:32:59;;;;;;;1.93;1.77;;;;;;;;;;4949119;28;20214;-71
2022/03/06 02:35:26;;;;;;;3.70;2.00;;;;;;;;;;4946880;28;20807;-71
2022/03/06 02:37:54;;;;;;;3.77;1.37;;;;;;;;;;4948939;28;20585;-70
2022/03/06 02:40:23;;;;;;;1.40;1.30;;;;;;;;;;4946521;28;20203;-70
2022/03/06 02:42:54;;;;;;;1.13;0.73;;;;;;;;;;4947171;28;20230;-70
2022/03/06 02:45:22;;;;;;;0.20;0.10;;;;;;;;;;4942843;28;20227;-69
2022/03/06 02:47:50;;;;;;;2.73;1.07;;;;;;;;;;4938140;28;20265;-69
2022/03/06 02:50:19;;;;;;;1.83;1.73;;;;;;;;;;4939580;28;20222;-70
2022/03/06 02:52:46;;;;;;;4.17;2.63;;;;;;;;;;4940406;28;20689;-71
2022/03/06 02:55:15;;;;;;;0.73;0.60;;;;;;;;;;4937327;28;20241;-71
2022/03/06 02:57:44;;;;;;;4.70;1.53;;;;;;;;;;4939944;28;20991;-70
2022/03/06 03:00:13;;;;;;;2.07;1.67;;;;;;;;;;4936688;28;20199;-70
2022/03/06 03:02:40;;;;;;;0.90;0.83;;;;;;;;;;4939580;28;20237;-71
2022/03/06 03:05:10;;;;;;;1.13;0.80;;;;;;;;;;4938229;28;20207;-70
2022/03/06 03:07:39;;;;;;;0.53;0.53;;;;;;;;;;4936813;28;20269;-71
2022/03/06 03:10:07;;;;;;;2.03;1.77;;;;;;;;;;4939832;28;20210;-69
2022/03/06 03:12:34;;;;;;;8.60;3.50;;;;;;;;;;4939625;28;20195;-70
2022/03/06 03:15:03;;;;;;;0.70;0.60;;;;;;;;;;4938290;28;20881;-69
2022/03/06 03:17:31;;;;;;;5.40;3.00;;;;;;;;;;4936635;28;20210;-72
2022/03/06 03:19:58;;;;;;;3.70;1.70;;;;;;;;;;4936229;28;20202;-70
2022/03/06 03:22:26;;;;;;;9.57;1.40;;;;;;;;;;4940837;28;20223;-69
2022/03/06 03:24:53;;;;;;;3.53;1.27;;;;;;;;;;4937431;28;20719;-70
2022/03/06 03:27:21;;;;;;;5.00;2.53;;;;;;;;;;4935822;28;20207;-69
2022/03/06 03:29:48;;;;;;;1.90;1.60;;;;;;;;;;4934238;28;20211;-71
2022/03/06 03:32:17;;;;;;;4.33;2.37;;;;;;;;;;4940028;28;20205;-71
2022/03/06 03:34:45;;;;;;;1.60;0.87;;;;;;;;;;4938934;28;20597;-70
2022/03/06 03:37:12;;;;;;;6.60;4.03;;;;;;;;;;4933266;28;20194;-71
2022/03/06 03:39:40;;;;;;;5.13;4.67;;;;;;;;;;4933767;28;20210;-71
2022/03/06 03:42:07;;;;;;;2.73;2.50;;;;;;;;;;4935460;28;20486;-70
2022/03/06 03:44:35;;;;;;;4.70;4.23;;;;;;;;;;4935329;28;20209;-70
2022/03/06 03:47:02;;;;;;;1.30;1.20;;;;;;;;;;4935596;28;20653;-70
2022/03/06 03:49:31;;;;;;;1.87;1.63;;;;;;;;;;4935624;28;20656;-70
2022/03/06 03:51:59;;;;;;;0.77;0.70;;;;;;;;;;4940513;28;20549;-70
2022/03/06 03:54:26;;;;;;;1.87;1.73;;;;;;;;;;4938597;28;20238;-71
2022/03/06 03:56:54;;;;;;;2.87;2.57;;;;;;;;;;4937653;28;20211;-71
2022/03/06 03:59:21;;;;;;;1.77;1.43;;;;;;;;;;4938311;28;20218;-71
2022/03/06 04:01:48;;;;;;;6.07;1.87;;;;;;;;;;4940698;28;20242;-71
2022/03/06 04:04:16;;;;;;;0.60;0.60;;;;;;;;;;4937564;28;20208;-71
2022/03/06 04:06:45;;;;;;;4.17;1.90;;;;;;;;;;4935961;28;20199;-68
2022/03/06 04:09:12;;;;;;;2.00;0.93;;;;;;;;;;4938078;28;20199;-71
2022/03/06 04:11:40;;;;;;;9.13;4.03;;;;;;;;;;4938490;28;20207;-71
2022/03/06 04:14:07;;;;;;;0.70;0.70;;;;;;;;;;4943248;28;20214;-70
2022/03/06 04:16:35;;;;;;;0.53;0.30;;;;;;;;;;4937202;28;20241;-69
2022/03/06 04:19:02;;;;;;;1.63;1.30;;;;;;;;;;4938759;28;20214;-69
2022/03/06 04:21:30;;;;;;;0.90;0.90;;;;;;;;;;4941689;28;20557;-72
2022/03/06 04:23:58;;;;;;;3.93;2.43;;;;;;;;;;4943333;28;20249;-69
2022/03/06 04:26:26;;;;;;;1.53;1.43;;;;;;;;;;4939570;28;20242;-72
2022/03/06 04:28:53;;;;;;;1.23;0.57;;;;;;;;;;4939754;28;20281;-71
2022/03/06 04:31:21;;;;;;;0.40;0.40;;;;;;;;;;4939499;28;20210;-71
2022/03/06 04:33:48;;;;;;;0.70;0.67;;;;;;;;;;4945196;28;20201;-71
2022/03/06 04:36:16;;;;;;;1.57;1.47;;;;;;;;;;4938466;28;20203;-71
2022/03/06 04:38:43;;;;;;;1.70;0.77;;;;;;;;;;4939636;28;20227;-70
2022/03/06 04:41:13;;;;;;;4.03;2.73;;;;;;;;;;4940492;28;20205;-70
2022/03/06 04:43:40;;;;;;;1.13;1.10;;;;;;;;;;4939762;28;20976;-70
2022/03/06 04:46:07;;;;;;;1.33;1.23;;;;;;;;;;4938378;28;20213;-70
2022/03/06 04:48:35;;;;;;;2.37;2.13;;;;;;;;;;4943748;28;20213;-70
2022/03/06 04:51:02;;;;;;;8.23;2.80;;;;;;;;;;4940098;28;20199;-70
2022/03/06 04:53:30;;;;;;;1.60;1.47;;;;;;;;;;4939177;28;20199;-71
2022/03/06 04:55:57;;;;;;;1.87;1.30;;;;;;;;;;4940906;28;20206;-69
2022/03/06 04:58:26;;;;;;;0.10;0.10;;;;;;;;;;4940534;28;20195;-69
2022/03/06 05:00:53;;;;;;;1.70;1.47;;;;;;;;;;4942984;28;20203;-70
2022/03/06 05:03:21;;;;;;;1.77;1.67;;;;;;;;;;4947347;28;20223;-70
2022/03/06 05:05:49;;;;;;;2.33;2.13;;;;;;;;;;4937486;28;20305;-71
2022/03/06 05:08:16;;;;;;;2.50;1.20;;;;;;;;;;4940490;28;20227;-70
2022/03/06 05:10:44;;;;;;;2.67;2.13;;;;;;;;;;4940269;28;20207;-70
2022/03/06 05:13:11;;;;;;;6.20;3.30;;;;;;;;;;4944960;28;20227;-71
2022/03/06 05:15:40;;;;;;;2.27;1.20;;;;;;;;;;4939103;28;20200;-70
2022/03/06 05:18:08;;;;;;;1.93;1.30;;;;;;;;;;4942771;28;20249;-71
2022/03/06 05:20:35;;;;;;;1.83;1.73;;;;;;;;;;4938559;28;20207;-71
2022/03/06 05:23:03;;;;;;;0.00;0.00;;;;;;;;;;4938080;28;21867;-70
2022/03/06 05:25:30;;;;;;;1.17;1.07;;;;;;;;;;4940381;28;20215;-70
2022/03/06 05:27:58;;;;;;;2.03;1.40;;;;;;;;;;4939872;28;20883;-70
2022/03/06 05:30:25;;;;;;;1.90;1.80;;;;;;;;;;4940164;28;20203;-71
2022/03/06 05:32:54;;;;;;;1.90;1.37;;;;;;;;;;4942020;28;20206;-71
2022/03/06 05:35:21;;;;;;;0.80;0.80;;;;;;;;;;4938766;28;20191;-70
2022/03/06 05:37:49;;;;;;;2.53;1.40;;;;;;;;;;4942255;28;20212;-70
2022/03/06 05:40:16;;;;;;;4.03;1.80;;;;;;;;;;4941263;28;20203;-71
2022/03/06 05:42:44;;;;;;;4.50;3.20;;;;;;;;;;4939240;28;20587;-69
2022/03/06 05:45:11;;;;;;;0.97;0.97;;;;;;;;;;4937128;28;20210;-71
2022/03/06 05:47:39;;;;;;;1.13;0.80;;;;;;;;;;4940993;28;20262;-69
2022/03/06 05:50:08;;;;;;;1.77;1.50;;;;;;;;;;4939052;28;20195;-71
2022/03/06 05:52:36;;;;;;;6.57;2.80;;;;;;;;;;4939180;28;20223;-71
2022/03/06 05:55:03;;;;;;;2.37;2.17;;;;;;;;;;4938196;28;20231;-71
2022/03/06 05:57:31;;;;;;;3.07;2.70;;;;;;;;;;4941621;28;20342;-69
2022/03/06 05:59:58;;;;;;;1.80;1.23;;;;;;;;;;4941393;28;20207;-70
2022/03/06 06:02:26;;;;;;;1.37;1.27;;;;;;;;;;4936556;28;20322;-70
2022/03/06 06:04:54;;;;;;;0.67;0.67;;;;;;;;;;4935479;28;21951;-70
2022/03/06 06:07:25;;;;;;;1.50;1.37;;;;;;;;;;4936679;28;20194;-70
2022/03/06 06:09:52;;;;;;;4.30;2.33;;;;;;;;;;4939508;28;20302;-70
2022/03/06 06:12:20;;;;;;;2.40;1.80;;;;;;;;;;4936370;28;20203;-70
2022/03/06 06:14:47;;;;;;;0.63;0.63;;;;;;;;;;4939118;28;20207;-70
2022/03/06 06:17:15;;;;;;;0.00;0.00;;;;;;;;;;4937574;28;20214;-70
2022/03/06 06:19:42;;;;;;;2.03;1.00;;;;;;;;;;4942449;28;20209;-69
2022/03/06 06:22:10;;;;;;;0.13;0.13;;;;;;;;;;4936930;28;20217;-70
2022/03/06 06:24:39;;;;;;;0.93;0.93;;;;;;;;;;4936643;28;20586;-69
2022/03/06 06:27:06;;;;;;;4.33;3.00;;;;;;;;;;4938116;28;20214;-69
2022/03/06 06:29:34;;;;;;;1.77;1.33;;;;;;;;;;4936996;28;20953;-69
2022/03/06 06:32:01;;;;;;;0.60;0.40;;;;;;;;;;4939368;28;20218;-69
2022/03/06 06:34:29;;;;;;;2.30;1.00;;;;;;;;;;4937693;28;20211;-70
2022/03/06 06:36:58;;;;;;;6.77;3.70;;;;;;;;;;4936399;28;20202;-70
2022/03/06 06:39:26;;;;;;;9.60;3.03;;;;;;;;;;4936513;28;20230;-69
2022/03/06 06:41:55;;;;;;;2.53;2.20;;;;;;;;;;4935769;28;20404;-69
2022/03/06 06:44:23;;;;;;;1.30;1.23;;;;;;;;;;4931410;28;20234;-70
2022/03/06 06:46:50;;;;;;;0.87;0.40;;;;;;;;;;4933126;28;20218;-70
2022/03/06 06:49:17;;;;;;;1.80;1.77;;;;;;;;;;4933493;28;20208;-71
2022/03/06 06:51:45;;;;;;;2.60;1.67;;;;;;;;;;4934513;28;20227;-70
2022/03/06 06:54:13;;;;;;;1.43;1.33;;;;;;;;;;4934631;28;20235;-70
2022/03/06 06:56:41;;;;;;;0.23;0.23;;;;;;;;;;4937255;28;20210;-70
2022/03/06 06:59:09;;;;;;;1.43;1.00;;;;;;;;;;4941677;28;20211;-71
2022/03/06 07:01:37;;;;;;;2.97;2.73;;;;;;;;;;4942668;28;20196;-71
2022/03/06 07:04:05;;;;;;;0.60;0.60;;;;;;;;;;4937968;28;20219;-72
2022/03/06 07:06:32;;;;;;;8.00;4.80;;;;;;;;;;4936117;28;20202;-71
2022/03/06 07:09:00;;;;;;;2.47;0.37;;;;;;;;;;4936853;28;20229;-71
2022/03/06 07:11:27;;;;;;;1.00;0.97;;;;;;;;;;4938329;28;20230;-70
2022/03/06 07:13:55;;;;;;;1.67;1.57;;;;;;;;;;4938177;28;20203;-68
2022/03/06 07:16:24;;;;;;;4.13;3.37;;;;;;;;;;4938890;28;20213;-71
2022/03/06 07:18:51;;;;;;;3.93;3.43;;;;;;;;;;4937666;28;20207;-70
2022/03/06 07:21:18;;;;;;;3.80;2.87;;;;;;;;;;4938749;28;20198;-71
2022/03/06 07:23:46;;;;;;;0.70;0.70;;;;;;;;;;4937790;28;20276;-69
2022/03/06 07:26:13;;;;;;;1.23;1.20;;;;;;;;;;4938077;28;21989;-69
2022/03/06 07:28:40;;;;;;;3.17;1.60;;;;;;;;;;4941233;28;20203;-69
2022/03/06 07:31:09;;;;;;;9.00;5.13;;;;;;;;;;4947662;28;20199;-71
2022/03/06 07:33:38;;;;;;;3.33;2.87;;;;;;;;;;4944709;28;20206;-70
2022/03/06 07:36:06;;;;;;;3.73;3.37;;;;;;;;;;4946871;28;20210;-69
2022/03/06 07:38:33;;;;;;;7.60;3.70;;;;;;;;;;4943344;28;20222;-68
2022/03/06 07:41:01;;;;;;;1.77;1.47;;;;;;;;;;4942603;28;20202;-74
2022/03/06 07:43:28;;;;;;;1.40;1.07;;;;;;;;;;4940718;28;20265;-70
2022/03/06 07:45:55;;;;;;;2.53;2.33;;;;;;;;;;4938381;28;20242;-70
2022/03/06 07:48:23;;;;;;;7.13;5.07;;;;;;;;;;4943498;28;20241;-69
2022/03/06 07:50:52;;;;;;;10.30;3.70;;;;;;;;;;4944501;28;20203;-70
2022/03/06 07:53:19;;;;;;;4.67;4.10;;;;;;;;;;4945076;28;20221;-71
2022/03/06 07:55:46;;;;;;;3.63;3.00;;;;;;;;;;4946865;28;20202;-68
2022/03/06 07:58:14;;;;;;;6.10;4.23;;;;;;;;;;4946294;28;20198;-70
2022/03/06 08:00:41;;;;;;;3.10;2.80;;;;;;;;;;4945814;28;20591;-71
2022/03/06 08:03:09;;;;;;;5.53;2.97;;;;;;;;;;4945406;28;20234;-70
2022/03/06 08:05:36;;;;;;;4.13;2.63;;;;;;;;;;4946549;28;20213;-69
2022/03/06 08:08:06;;;;;;;1.40;1.30;;;;;;;;;;4946079;28;20203;-66
2022/03/06 08:10:33;;;;;;;3.70;1.87;;;;;;;;;;4945651;28;20257;-73
2022/03/06 08:13:01;;;;;;;3.77;2.63;;;;;;;;;;4942665;28;20671;-70
2022/03/06 08:15:28;;;;;;;2.53;2.13;;;;;;;;;;4940542;28;20210;-71
2022/03/06 08:17:56;;;;;;;3.40;2.30;;;;;;;;;;4942600;28;20253;-70
2022/03/06 08:20:23;;;;;;;2.50;2.30;;;;;;;;;;4938855;28;20229;-72
2022/03/06 08:22:50;;;;;;;3.83;3.27;;;;;;;;;;4940231;28;20214;-72
2022/03/06 08:25:20;;;;;;;2.90;2.20;;;;;;;;;;4938938;28;20207;-72
2022/03/06 08:27:47;;;;;;;9.67;5.10;;;;;;;;;;4938547;28;20669;-72
2022/03/06 08:30:15;;;;;;;3.10;2.80;;;;;;;;;;4947271;28;20259;-69
2022/03/06 08:32:42;;;;;;;4.47;4.07;;;;;;;;;;4946665;28;20199;-71
2022/03/06 08:35:11;;;;;;;1.97;1.67;;;;;;;;;;4945982;28;20222;-72
2022/03/06 08:37:39;;;;;;;4.57;3.30;;;;;;;;;;4945359;28;20209;-72
2022/03/06 08:40:08;;;;;;;1.60;1.50;;;;;;;;;;4944444;28;20222;-70
2022/03/06 08:42:37;;;;;;;1.93;0.87;;;;;;;;;;4946561;28;20206;-72
2022/03/06 08:45:05;;;;;;;3.20;2.90;;;;;;;;;;4953313;28;20221;-72
2022/03/06 08:47:32;;;;;;;6.13;3.77;;;;;;;;;;4947090;28;20211;-73
2022/03/06 08:50:00;;;;;;;4.53;2.47;;;;;;;;;;4938104;28;20275;-70
2022/03/06 08:52:27;;;;;;;1.27;1.23;;;;;;;;;;4935129;28;20229;-70
2022/03/06 08:54:55;;;;;;;3.93;3.47;;;;;;;;;;4952482;28;20230;-70
2022/03/06 08:57:23;;;;;;;5.20;3.27;;;;;;;;;;4949988;28;20606;-72
2022/03/06 08:59:53;;;;;;;3.93;3.50;;;;;;;;;;4952037;28;20298;-73
2022/03/06 09:02:21;;;;;;;5.33;3.50;;;;;;;;;;4953610;28;20595;-73
2022/03/06 09:04:48;;;;;;;7.10;4.67;;;;;;;;;;4953111;28;20238;-72
2022/03/06 09:07:16;;;;;;;5.43;3.90;;;;;;;;;;4950102;28;20203;-71
2022/03/06 09:09:43;;;;;;;0.77;0.77;;;;;;;;;;4946742;28;20230;-73
2022/03/06 09:12:11;;;;;;;1.57;1.47;;;;;;;;;;4945596;28;20207;-73
2022/03/06 09:14:38;;;;;;;3.03;2.30;;;;;;;;;;4946612;28;20216;-74
2022/03/06 09:17:09;;;;;;;3.70;2.50;;;;;;;;;;4944600;28;20691;-72
2022/03/06 09:19:36;;;;;;;5.80;3.60;;;;;;;;;;4947059;28;20576;-73
2022/03/06 09:22:04;;;;;;;1.87;1.73;;;;;;;;;;4950463;28;20206;-71
2022/03/06 09:24:32;;;;;;;2.30;2.10;;;;;;;;;;4948025;28;20231;-72
2022/03/06 09:27:00;;;;;;;3.70;2.47;;;;;;;;;;4947564;28;20217;-71
2022/03/06 09:29:27;;;;;;;2.83;2.37;;;;;;;;;;4950005;28;20214;-71
2022/03/06 09:31:54;;;;;;;5.03;3.83;;;;;;;;;;4950187;28;20199;-75
2022/03/06 09:34:23;;;;;;;2.37;2.13;;;;;;;;;;4946053;28;20583;-71
2022/03/06 09:36:51;;;;;;;1.00;1.00;;;;;;;;;;4947827;28;20214;-71
2022/03/06 09:39:18;;;;;;;1.83;1.00;;;;;;;;;;4951135;28;20201;-70
2022/03/06 09:41:49;;;;;;;1.70;1.20;;;;;;;;;;4952551;29;20788;-71
2022/03/06 09:44:16;;;;;;;1.03;0.93;;;;;;;;;;4952964;28;20254;-72
2022/03/06 09:46:44;;;;;;;4.50;3.33;;;;;;;;;;4953311;28;20206;-72
2022/03/06 09:49:11;;;;;;;1.60;1.50;;;;;;;;;;4951020;28;20207;-73
2022/03/06 09:51:41;;;;;;;1.80;1.63;;;;;;;;;;4952720;28;20206;-70
2022/03/06 09:54:09;;;;;;;2.93;2.07;;;;;;;;;;4953299;28;20240;-70
2022/03/06 09:56:37;;;;;;;5.03;3.70;;;;;;;;;;4944924;28;20547;-71
2022/03/06 09:59:05;;;;;;;2.00;1.90;;;;;;;;;;4950402;28;20230;-75
2022/03/06 10:01:32;;;;;;;3.90;2.70;;;;;;;;;;4955068;28;20283;-72
2022/03/06 10:03:59;;;;;;;1.50;1.40;;;;;;;;;;4954773;28;20231;-70
2022/03/06 10:06:27;;;;;;;2.57;2.03;;;;;;;;;;4951377;28;20203;-72
2022/03/06 10:09:05;;;;;;;1.90;1.70;;;;;;;;;;4948655;28;20715;-71
2022/03/06 10:11:33;;;;;;;4.37;3.13;;;;;;;;;;4952590;28;20253;-70
2022/03/06 10:14:00;;;;;;;3.80;2.00;;;;;;;;;;4951151;28;20210;-70
2022/03/06 10:16:29;;;;;;;6.30;3.10;;;;;;;;;;4949180;28;20200;-71
2022/03/06 10:18:57;;;;;;;5.30;2.57;;;;;;;;;;4953328;28;20301;-75
2022/03/06 10:21:25;;;;;;;4.60;2.97;;;;;;;;;;4938572;29;20203;-71
2022/03/06 10:23:54;;;;;;;2.83;2.63;;;;;;;;;;4954024;28;20231;-70
2022/03/06 10:26:23;;;;;;;2.50;1.97;;;;;;;;;;4955393;28;20210;-71
2022/03/06 10:28:52;;;;;;;6.07;3.33;;;;;;;;;;4952240;29;20587;-70
2022/03/06 10:31:21;;;;;;;3.53;2.93;;;;;;;;;;4951370;28;20211;-70
2022/03/06 10:33:58;;;;;;;2.60;2.40;;;;;;;;;;4947121;28;20207;-71
2022/03/06 10:36:36;;;;;;;2.80;0.97;;;;;;;;;;4946059;28;20203;-71
2022/03/06 10:39:04;;;;;;;3.33;2.70;;;;;;;;;;4942511;28;20662;-73
2022/03/06 10:41:38;;;;;;;5.90;3.47;;;;;;;;;;4945216;28;20278;-71
2022/03/06 10:44:06;;;;;;;3.03;2.37;;;;;;;;;;4952832;28;20317;-71
2022/03/06 10:46:35;;;;;;;6.70;4.13;;;;;;;;;;4952753;28;20223;-72
2022/03/06 10:49:08;;;;;;;2.47;1.93;;;;;;;;;;4948444;28;20673;-74
2022/03/06 10:51:39;;;;;;;2.00;1.37;;;;;;;;;;4951394;29;20227;-73
2022/03/06 10:54:06;;;;;;;3.33;3.03;;;;;;;;;;4943037;29;20243;-71
2022/03/06 10:56:36;;;;;;;3.97;2.53;;;;;;;;;;4944248;28;20249;-72
2022/03/06 10:59:05;;;;;;;0.60;0.60;;;;;;;;;;4950859;28;20200;-72
2022/03/06 11:01:32;;;;;;;2.93;2.33;;;;;;;;;;4934814;29;20299;-70
2022/03/06 11:04:01;;;;;;;4.93;3.40;;;;;;;;;;4934904;29;20235;-73
2022/03/06 11:06:29;;;;;;;1.07;0.97;;;;;;;;;;4936393;28;20294;-73
2022/03/06 11:08:56;;;;;;;3.23;1.97;;;;;;;;;;4950789;28;20202;-72
2022/03/06 11:11:24;;;;;;;3.27;1.87;;;;;;;;;;4950120;28;20206;-71
2022/03/06 11:13:55;;;;;;;3.33;2.67;;;;;;;;;;4949679;28;20203;-71
2022/03/06 11:16:24;;;;;;;2.87;2.57;;;;;;;;;;4952235;28;20203;-72
2022/03/06 11:18:53;;;;;;;1.90;1.73;;;;;;;;;;4953424;29;20199;-72
2022/03/06 11:21:24;;;;;;;1.40;1.30;;;;;;;;;;4946067;29;20217;-72
2022/03/06 11:23:53;;;;;;;2.10;1.67;;;;;;;;;;4933709;29;20227;-71
2022/03/06 11:26:39;;;;;;;4.07;1.87;;;;;;;;;;4939947;28;20210;-70
2022/03/06 11:29:40;;;;;;;0.40;0.40;;;;;;;;;;4942777;29;20277;-71
2022/03/06 11:32:08;;;;;;;5.33;3.17;;;;;;;;;;4947874;28;20586;-72
2022/03/06 11:34:37;;;;;;;1.87;1.70;;;;;;;;;;4941689;28;20263;-72
2022/03/06 11:37:05;;;;;;;1.67;1.33;;;;;;;;;;4950859;28;20219;-72
2022/03/06 11:39:49;;;;;;;3.37;2.63;;;;;;;;;;4953272;29;20572;-72
2022/03/06 11:42:35;;;;;;;7.63;3.67;;;;;;;;;;4953282;29;20211;-71
2022/03/06 11:45:04;;;;;;;0.83;0.83;;;;;;;;;;4945855;29;20258;-72
2022/03/06 11:47:41;;;;;;;5.73;3.73;;;;;;;;;;4951619;28;20572;-72
2022/03/06 11:50:09;;;;;;;6.50;2.43;;;;;;;;;;4935387;28;20194;-72
2022/03/06 11:52:41;;;;;;;2.03;1.83;;;;;;;;;;4948722;29;20699;-68
2022/03/06 11:55:29;;;;;;;2.97;1.80;;;;;;;;;;4945205;28;20228;-72
2022/03/06 11:57:57;;;;;;;1.60;1.40;;;;;;;;;;4941401;29;20290;-72
2022/03/06 12:00:26;;;;;;;2.77;2.13;;;;;;;;;;4948260;29;20242;-71
2022/03/06 12:02:55;;;;;;;1.77;1.27;;;;;;;;;;4953115;29;20590;-72
2022/03/06 12:05:23;;;;;;;1.73;1.63;;;;;;;;;;4948296;28;20711;-72
2022/03/06 12:07:51;;;;;;;1.77;1.60;;;;;;;;;;4952169;28;20203;-71
2022/03/06 12:10:19;;;;;;;0.50;0.43;;;;;;;;;;4952035;29;20305;-72
2022/03/06 12:12:57;;;;;;;2.13;1.60;;;;;;;;;;4951863;29;20210;-71
2022/03/06 12:15:28;;;;;;;2.07;1.07;;;;;;;;;;4939611;28;20570;-70
2022/03/06 12:18:03;;;;;;;2.93;2.23;;;;;;;;;;4941523;29;20203;-72
2022/03/06 12:20:40;;;;;;;2.50;1.60;;;;;;;;;;4948954;28;20680;-72
2022/03/06 12:23:20;;;;;;;0.90;0.73;;;;;;;;;;4947376;29;20213;-72
2022/03/06 12:25:52;;;;;;;3.37;2.43;;;;;;;;;;4942227;29;20261;-72
2022/03/06 12:28:37;;;;;;;2.03;1.40;;;;;;;;;;4937000;28;20204;-71
2022/03/06 12:31:23;;;;;;;4.60;2.80;;;;;;;;;;4940582;28;20770;-71
2022/03/06 12:33:53;;;;;;;3.87;2.03;;;;;;;;;;4940985;29;20203;-72
2022/03/06 12:36:23;;;;;;;4.23;0.83;;;;;;;;;;4942026;29;20314;-71
2022/03/06 12:38:58;;;;;;;1.73;1.60;;;;;;;;;;4937574;29;20211;-72
2022/03/06 12:41:26;;;;;;;2.00;0.93;;;;;;;;;;4937562;29;20203;-70
2022/03/06 12:44:05;;;;;;;0.60;0.60;;;;;;;;;;4950984;29;20569;-72
2022/03/06 12:46:33;;;;;;;1.53;1.43;;;;;;;;;;4936698;28;20203;-72
2022/03/06 12:49:02;;;;;;;2.83;2.17;;;;;;;;;;4951112;28;20255;-70
2022/03/06 12:51:34;;;;;;;1.13;1.03;;;;;;;;;;4936445;29;20210;-71
2022/03/06 12:54:02;;;;;;;2.93;1.67;;;;;;;;;;4937867;28;20242;-70
2022/03/06 12:56:33;;;;;;;2.93;2.37;;;;;;;;;;4947252;29;20608;-71
2022/03/06 12:59:08;;;;;;;2.67;1.83;;;;;;;;;;4953598;28;20267;-71
2022/03/06 13:01:37;;;;;;;13.83;3.63;;;;;;;;;;4938239;28;20247;-71
2022/03/06 13:04:06;;;;;;;3.23;2.73;;;;;;;;;;4940717;28;20224;-72
2022/03/06 13:06:34;;;;;;;2.97;2.37;;;;;;;;;;4941766;28;20213;-71
2022/03/06 13:09:03;;;;;;;2.33;1.30;;;;;;;;;;4944618;28;20214;-72
2022/03/06 13:11:30;;;;;;;13.43;2.03;;;;;;;;;;4942224;28;20210;-70
2022/03/06 13:14:05;;;;;;;2.07;1.73;;;;;;;;;;4939542;28;20299;-71
2022/03/06 13:16:33;;;;;;;0.87;0.87;;;;;;;;;;4942979;28;20232;-71
2022/03/06 13:19:02;;;;;;;1.43;1.07;;;;;;;;;;4941913;29;20206;-72
2022/03/06 13:21:31;;;;;;;0.80;0.80;;;;;;;;;;4945914;29;20195;-71
2022/03/06 13:23:59;;;;;;;3.63;2.70;;;;;;;;;;4945472;28;20203;-71
2022/03/06 13:26:27;;;;;;;1.60;1.43;;;;;;;;;;4938917;29;20227;-70
2022/03/06 13:28:55;;;;;;;3.23;2.07;;;;;;;;;;4938391;28;20219;-69
2022/03/06 13:31:23;;;;;;;1.73;1.63;;;;;;;;;;4938936;29;20211;-71
2022/03/06 13:34:06;;;;;;;2.70;2.20;;;;;;;;;;4938526;28;20214;-71
2022/03/06 13:36:36;;;;;;;2.67;1.47;;;;;;;;;;4939591;28;20683;-71
2022/03/06 13:39:05;;;;;;;1.83;1.73;;;;;;;;;;4943184;28;20199;-71
2022/03/06 13:41:34;;;;;;;3.77;2.40;;;;;;;;;;4940917;28;20208;-70
2022/03/06 13:44:01;;;;;;;3.90;3.60;;;;;;;;;;4938401;28;20683;-71
2022/03/06 13:46:28;;;;;;;0.37;0.37;;;;;;;;;;4947454;28;20703;-70
2022/03/06 13:49:09;;;;;;;1.10;1.10;;;;;;;;;;4941332;28;20203;-71
2022/03/06 13:51:37;;;;;;;2.67;1.23;;;;;;;;;;4939955;29;20206;-71
2022/03/06 13:54:06;;;;;;;0.83;0.83;;;;;;;;;;4946862;28;20345;-71
2022/03/06 13:56:35;;;;;;;4.00;2.43;;;;;;;;;;4935601;29;20724;-72
2022/03/06 13:59:03;;;;;;;2.10;1.90;;;;;;;;;;4943857;29;20217;-71
2022/03/06 14:01:31;;;;;;;2.70;2.37;;;;;;;;;;4943276;29;20227;-69
2022/03/06 14:04:00;;;;;;;1.77;1.63;;;;;;;;;;4938946;28;20294;-72
2022/03/06 14:06:39;;;;;;;1.23;1.07;;;;;;;;;;4941412;28;20267;-71
2022/03/06 14:09:19;;;;;;;0.43;0.33;;;;;;;;;;4945835;29;20198;-72
2022/03/06 14:11:47;;;;;;;2.17;2.00;;;;;;;;;;4939139;28;20217;-71
2022/03/06 14:14:14;;;;;;;0.83;0.83;;;;;;;;;;4941327;29;20892;-70
2022/03/06 14:16:42;;;;;;;2.53;1.40;;;;;;;;;;4941926;28;20214;-71
2022/03/06 14:19:16;;;;;;;1.40;1.17;;;;;;;;;;4941679;28;20568;-71
2022/03/06 14:21:47;;;;;;;0.80;0.67;;;;;;;;;;4950484;28;20224;-71
2022/03/06 14:24:15;;;;;;;0.37;0.37;;;;;;;;;;4942044;28;20278;-72
2022/03/06 14:26:44;;;;;;;1.13;1.00;;;;;;;;;;4946573;28;20239;-72
2022/03/06 14:29:13;;;;;;;0.87;0.87;;;;;;;;;;4946069;28;20215;-70
2022/03/06 14:31:41;;;;;;;2.03;1.83;;;;;;;;;;4949969;28;20210;-70
2022/03/06 14:34:10;;;;;;;2.97;1.60;;;;;;;;;;4952567;28;20207;-71
2022/03/06 14:36:37;;;;;;;2.33;2.13;;;;;;;;;;4950257;28;20207;-70
2022/03/06 14:39:06;;;;;;;2.10;1.60;;;;;;;;;;4951249;28;20551;-71
2022/03/06 14:41:35;;;;;;;1.27;0.40;;;;;;;;;;4953289;28;20199;-70
2022/03/06 14:44:02;;;;;;;0.20;0.20;;;;;;;;;;4948476;28;20656;-71
2022/03/06 14:46:30;;;;;;;0.70;0.70;;;;;;;;;;4949860;28;20226;-72
2022/03/06 14:48:57;;;;;;;1.23;1.13;;;;;;;;;;4950201;28;20548;-71
2022/03/06 14:51:25;;;;;;;5.93;2.17;;;;;;;;;;4950074;28;20222;-71